Lumen N — 3FPC4 — position and weather

sailwx.info

Track history (hours):
 
Tides and Currents Weather Stations Pressure Air Temp Water Temp Dewpoint Dewpoint Depression Visibility Wind Speed Wind Dir Waves Ship Positions

Lumen N

Last reported at 2017-Sep-21 20:11 UTC. Time now 2017-Sep-25 11:37 UTC.
Position N 33°46' W 118°16'.

Length 228 m; draft 8.2 m.

Type: Tanker. MMSI: 355364000.

Date/timePositionNaut miles runAvg speedWind from/ knotsBaromVisibWave heightAir tempDewpointWater temp
2017-Sep-21 20:11N 33°46' W 118°16'0 0.0
2017-Sep-21 19:41N 33°46' W 118°16'0 0.0
2017-Sep-21 18:11N 33°46' W 118°16'0 0.0
2017-Sep-21 17:41N 33°46' W 118°16'0 0.0
2017-Sep-21 17:17N 33°46' W 118°16'0 0.4
2017-Sep-21 17:00N 33°46' W 118°16'0 0.8
2017-Sep-21 16:30N 33°45' W 118°16'2 4.2
2017-Sep-21 15:55N 33°43' W 118°16'3 0.8
2017-Sep-21 12:40N 33°44' W 118°13'0 0.1
2017-Sep-21 12:10N 33°44' W 118°13'0 0.0
2017-Sep-21 11:58N 33°44' W 118°13'1 0.5
2017-Sep-21 10:05N 33°45' W 118°13'1 4.0
2017-Sep-21 09:51N 33°46' W 118°13'1 2.2
2017-Sep-21 09:27N 33°46' W 118°13'0 0.0
2017-Sep-21 03:09N 33°46' W 118°13'0 0.0
2017-Sep-21 02:45N 33°46' W 118°13'0 0.0
2017-Sep-21 02:15N 33°46' W 118°13'0 0.0
2017-Sep-20 23:15N 33°46' W 118°13'0 0.0
2017-Sep-20 22:57N 33°46' W 118°13'0 0.0
2017-Sep-20 21:15N 33°46' W 118°13'0 0.0
2017-Sep-20 20:51N 33°46' W 118°13'0 0.0
2017-Sep-20 19:03N 33°46' W 118°13'0 0.0
2017-Sep-20 18:57N 33°46' W 118°13'0 0.0
2017-Sep-20 18:27N 33°46' W 118°13'0 0.0
2017-Sep-20 17:57N 33°46' W 118°13'0 0.0
2017-Sep-20 17:27N 33°46' W 118°13'0 0.0
2017-Sep-20 16:45N 33°46' W 118°13'0 0.0
2017-Sep-20 08:36N 33°46' W 118°13'0 0.7
2017-Sep-20 08:31N 33°46' W 118°13'1 1.8
2017-Sep-20 07:57N 33°45' W 118°13'2 5.0
2017-Sep-20 07:30N 33°44' W 118°11'2 4.1
2017-Sep-20 07:00N 33°42' W 118°13'0 0.1
2017-Sep-20 05:13N 33°42' W 118°13'0 0.1
2017-Sep-20 04:43N 33°42' W 118°13'0 0.1
2017-Sep-20 03:43N 33°42' W 118°13'0 0.0
2017-Sep-20 03:13N 33°42' W 118°13'0 0.2
2017-Sep-20 02:58N 33°42' W 118°13'0 0.2
2017-Sep-20 02:25N 33°42' W 118°13'0 0.1
2017-Sep-20 01:49N 33°42' W 118°13'0 0.0
2017-Sep-19 20:58N 33°42' W 118°13'0 0.1
2017-Sep-19 20:19N 33°42' W 118°13'0 0.0
2017-Sep-19 19:58N 33°42' W 118°13'0 0.1
2017-Sep-19 19:19N 33°42' W 118°13'0 0.0
2017-Sep-19 18:49N 33°42' W 118°13'0 0.0
2017-Sep-19 18:25N 33°42' W 118°13'0 0.1
2017-Sep-19 17:43N 33°42' W 118°13'0 0.0
2017-Sep-19 17:30N 33°42' W 118°13'0 0.0
2017-Sep-19 16:54N 33°42' W 118°13'0 0.0
2017-Sep-19 11:24N 33°42' W 118°13'0 0.0
2017-Sep-19 10:54N 33°42' W 118°13'0 0.0
2017-Sep-19 04:05N 33°42' W 118°13'0 0.1
2017-Sep-19 03:53N 33°42' W 118°13'0 0.1
2017-Sep-19 03:30N 33°42' W 118°13'0 0.0
2017-Sep-19 03:00N 33°42' W 118°13'0 0.0
2017-Sep-19 00:12N 33°42' W 118°13'0 0.0
2017-Sep-19 00:00N 33°42' W 118°13'0 0.0
2017-Sep-18 23:30N 33°42' W 118°13'0 0.1
2017-Sep-18 22:41N 33°42' W 118°13'0 0.3
2017-Sep-18 22:30N 33°42' W 118°13'0 0.0
2017-Sep-18 21:48N 33°42' W 118°13'0 0.0
2017-Sep-18 21:23N 33°42' W 118°13'0 0.1
2017-Sep-18 20:42N 33°42' W 118°13'0 0.2
2017-Sep-18 20:08N 33°42' W 118°13'0 0.0
2017-Sep-18 19:59N 33°42' W 118°13'0 0.0
2017-Sep-18 19:29N 33°42' W 118°13'0 0.1
2017-Sep-18 19:00N 33°42' W 118°13'0 0.0
2017-Sep-18 18:29N 33°42' W 118°13'0 0.0
2017-Sep-18 17:56N 33°42' W 118°13'0 0.0
2017-Sep-18 17:24N 33°42' W 118°13'0 0.1
2017-Sep-18 16:56N 33°42' W 118°13'0 0.0
2017-Sep-18 16:30N 33°42' W 118°13'0 0.0
2017-Sep-18 15:56N 33°42' W 118°13'0 0.1
2017-Sep-18 15:29N 33°42' W 118°13'0 0.0
2017-Sep-18 15:00N 33°42' W 118°13'0 0.0
2017-Sep-18 14:29N 33°42' W 118°13'0 0.0
2017-Sep-18 13:30N 33°42' W 118°13'0 0.0
2017-Sep-18 12:59N 33°42' W 118°13'0 0.0
2017-Sep-18 11:41N 33°42' W 118°13'0 0.0
2017-Sep-18 11:29N 33°42' W 118°13'0 0.1
2017-Sep-18 10:59N 33°42' W 118°13'0 0.0
2017-Sep-18 10:29N 33°42' W 118°13'0 0.1
2017-Sep-18 09:50N 33°42' W 118°13'0 0.1
2017-Sep-18 09:30N 33°42' W 118°13'0 0.1
2017-Sep-18 08:59N 33°42' W 118°13'0 0.0
2017-Sep-18 08:30N 33°42' W 118°13'0 0.1
2017-Sep-18 07:47N 33°42' W 118°13'0 0.0
2017-Sep-18 07:29N 33°42' W 118°13'0 0.1
2017-Sep-18 07:00N 33°42' W 118°13'0 0.0
2017-Sep-18 06:23N 33°42' W 118°13'0 0.1
2017-Sep-18 05:59N 33°42' W 118°13'0 0.0
2017-Sep-18 05:29N 33°42' W 118°13'0 0.1
2017-Sep-18 03:33N 33°42' W 118°13'0 0.1
2017-Sep-18 03:26N 33°42' W 118°13'0 0.1
2017-Sep-18 02:41N 33°42' W 118°13'0 0.1
2017-Sep-18 02:29N 33°42' W 118°13'0 0.0
2017-Sep-18 01:56N 33°42' W 118°13'0 0.0
2017-Sep-18 01:26N 33°42' W 118°13'0 0.0
2017-Sep-18 00:38N 33°42' W 118°13'0 0.0
2017-Sep-18 00:26N 33°42' W 118°13'0 0.0
2017-Sep-17 23:59N 33°42' W 118°13'0 0.0
2017-Sep-17 22:59N 33°42' W 118°13'0 0.0
2017-Sep-17 21:18N 33°42' W 118°13'0 0.0
2017-Sep-17 20:54N 33°42' W 118°13'0 0.0
2017-Sep-17 15:11N 33°42' W 118°13'0 0.1
2017-Sep-17 14:47N 33°42' W 118°13'0 0.0
2017-Sep-17 14:05N 33°42' W 118°13'0 0.0
2017-Sep-17 13:41N 33°42' W 118°13'0 0.0
2017-Sep-17 12:35N 33°42' W 118°13'0 0.0
2017-Sep-17 12:29N 33°42' W 118°13'0 0.0
2017-Sep-17 09:05N 33°42' W 118°13'0 0.1
2017-Sep-17 08:59N 33°42' W 118°13'0 0.1
2017-Sep-17 08:29N 33°42' W 118°13'0 0.0
2017-Sep-17 07:35N 33°42' W 118°13'0 0.1
2017-Sep-17 07:29N 33°42' W 118°13'0 0.0
2017-Sep-17 04:11N 33°42' W 118°13'0 0.0
2017-Sep-17 03:50N 33°42' W 118°13'0 0.0
2017-Sep-16 22:11N 33°42' W 118°13'0 0.0
2017-Sep-16 21:47N 33°42' W 118°13'0 0.0
2017-Sep-16 18:44N 33°42' W 118°13'0 0.1
2017-Sep-16 17:59N 33°42' W 118°13'0 0.0
2017-Sep-16 17:23N 33°42' W 118°13'0 0.0
2017-Sep-16 13:53N 33°42' W 118°13'0 0.0
2017-Sep-16 13:29N 33°42' W 118°13'0 0.0
2017-Sep-16 12:59N 33°42' W 118°13'0 0.1
2017-Sep-16 12:23N 33°42' W 118°13'0 0.0
2017-Sep-16 11:53N 33°42' W 118°13'0 0.0
2017-Sep-16 11:29N 33°42' W 118°13'0 0.0
2017-Sep-16 10:59N 33°42' W 118°13'0 0.0
2017-Sep-16 10:23N 33°42' W 118°13'0 0.1
2017-Sep-16 09:26N 33°42' W 118°13'0 0.1
2017-Sep-16 08:44N 33°42' W 118°13'0 0.0
2017-Sep-16 08:29N 33°42' W 118°13'0 0.0
2017-Sep-16 07:59N 33°42' W 118°13'0 0.0
2017-Sep-16 07:29N 33°42' W 118°13'0 0.0
2017-Sep-16 06:23N 33°42' W 118°13'0 0.0
2017-Sep-16 05:17N 33°42' W 118°13'0 0.2
2017-Sep-16 04:59N 33°42' W 118°13'0 0.0
2017-Sep-16 03:17N 33°42' W 118°13'0 0.0
2017-Sep-16 01:11N 33°42' W 118°13'0 0.0
2017-Sep-16 00:59N 33°42' W 118°13'0 0.0
2017-Sep-16 00:29N 33°42' W 118°13'0 0.0
2017-Sep-15 23:59N 33°42' W 118°13'0 0.0
2017-Sep-15 22:29N 33°42' W 118°13'0 0.0
2017-Sep-15 21:47N 33°42' W 118°13'0 0.0
2017-Sep-15 21:14N 33°42' W 118°13'0 0.0
2017-Sep-15 20:38N 33°42' W 118°13'0 0.0
2017-Sep-15 20:29N 33°42' W 118°13'0 0.0
2017-Sep-15 19:17N 33°42' W 118°13'0 0.1
2017-Sep-15 18:47N 33°42' W 118°13'0 0.2
2017-Sep-15 18:29N 33°42' W 118°13'0 0.0
2017-Sep-15 17:56N 33°42' W 118°13'0 0.0
2017-Sep-15 13:08N 33°42' W 118°13'0 0.0
2017-Sep-15 12:41N 33°42' W 118°13'0 0.0
2017-Sep-15 12:23N 33°42' W 118°13'0 0.1
2017-Sep-15 11:41N 33°42' W 118°13'0 0.2
2017-Sep-15 11:29N 33°42' W 118°13'0 0.0
2017-Sep-15 10:59N 33°42' W 118°13'0 0.0
2017-Sep-15 10:26N 33°42' W 118°13'0 0.0
2017-Sep-15 09:59N 33°42' W 118°13'0 0.1
2017-Sep-15 09:29N 33°42' W 118°13'0 0.1
2017-Sep-15 08:59N 33°42' W 118°13'0 0.0
2017-Sep-15 08:29N 33°42' W 118°13'0 0.0
2017-Sep-15 07:59N 33°42' W 118°13'0 0.0
2017-Sep-15 07:29N 33°42' W 118°13'0 0.0
2017-Sep-15 06:59N 33°42' W 118°13'0 0.0
2017-Sep-15 05:26N 33°42' W 118°13'0 0.0
2017-Sep-15 04:53N 33°42' W 118°13'0 0.0
2017-Sep-15 04:29N 33°42' W 118°13'0 0.0
2017-Sep-15 03:56N 33°42' W 118°13'0 0.0
2017-Sep-15 03:11N 33°42' W 118°13'0 0.0
2017-Sep-15 01:17N 33°42' W 118°13'0 0.0
2017-Sep-15 00:50N 33°42' W 118°13'0 0.0
2017-Sep-15 00:20N 33°42' W 118°13'0 0.0
2017-Sep-14 23:59N 33°42' W 118°13'0 0.0
2017-Sep-14 23:29N 33°42' W 118°13'0 0.0
2017-Sep-14 22:59N 33°42' W 118°13'0 0.0
2017-Sep-14 21:47N 33°42' W 118°13'0 0.0
2017-Sep-14 21:20N 33°42' W 118°13'0 0.0
2017-Sep-14 20:59N 33°42' W 118°13'0 0.0
2017-Sep-14 20:23N 33°42' W 118°13'0 0.0
2017-Sep-14 19:53N 33°42' W 118°13'0 0.0
2017-Sep-14 19:29N 33°42' W 118°13'0 0.0
2017-Sep-14 18:59N 33°42' W 118°13'0 0.1
2017-Sep-14 18:29N 33°42' W 118°13'0 0.0
2017-Sep-14 17:59N 33°42' W 118°13'0 0.1
2017-Sep-14 17:02N 33°42' W 118°13'0 0.2
2017-Sep-14 16:47N 33°42' W 118°13'0 0.0
2017-Sep-14 15:17N 33°42' W 118°13'0 0.0
2017-Sep-14 14:05N 33°42' W 118°13'0 0.0
2017-Sep-14 13:53N 33°42' W 118°13'0 0.1
2017-Sep-14 13:29N 33°42' W 118°13'0 0.1
2017-Sep-14 12:53N 33°42' W 118°13'0 0.0
2017-Sep-14 12:29N 33°42' W 118°13'0 0.1
2017-Sep-14 11:59N 33°42' W 118°13'0 0.0
2017-Sep-14 11:29N 33°42' W 118°13'0 0.0
2017-Sep-14 09:26N 33°42' W 118°13'0 0.0
2017-Sep-14 08:59N 33°42' W 118°13'0 0.0
2017-Sep-14 05:41N 33°42' W 118°13'0 0.2
2017-Sep-14 05:29N 33°42' W 118°13'0 0.1
2017-Sep-14 04:53N 33°42' W 118°13'0 0.1
2017-Sep-14 04:29N 33°42' W 118°13'0 0.0
2017-Sep-14 03:59N 33°42' W 118°13'0 0.0
2017-Sep-14 03:08N 33°42' W 118°13'0 0.3
2017-Sep-14 02:56N 33°42' W 118°13'0 0.1
2017-Sep-14 02:26N 33°42' W 118°13'0 0.1
2017-Sep-14 01:59N 33°42' W 118°13'0 0.0
2017-Sep-14 01:29N 33°42' W 118°13'0 0.0
2017-Sep-14 00:59N 33°42' W 118°13'0 0.0
2017-Sep-14 00:17N 33°42' W 118°13'0 0.0
2017-Sep-13 23:59N 33°42' W 118°13'0 0.0
2017-Sep-13 23:26N 33°42' W 118°13'0 0.0
2017-Sep-13 22:56N 33°42' W 118°13'0 0.0
2017-Sep-13 22:17N 33°42' W 118°13'0 0.0
2017-Sep-13 21:47N 33°42' W 118°13'0 0.0
2017-Sep-13 21:29N 33°42' W 118°13'0 0.0
2017-Sep-13 20:59N 33°42' W 118°13'0 0.0
2017-Sep-13 20:08N 33°42' W 118°13'0 0.0
2017-Sep-13 19:44N 33°42' W 118°13'0 0.0
2017-Sep-13 19:29N 33°42' W 118°13'0 0.0
2017-Sep-13 18:59N 33°42' W 118°13'0 0.0
2017-Sep-13 18:29N 33°42' W 118°13'0 0.0
2017-Sep-13 17:56N 33°42' W 118°13'0 0.0
2017-Sep-13 17:29N 33°42' W 118°13'0 0.0
2017-Sep-13 16:53N 33°42' W 118°13'0 0.0
2017-Sep-13 15:59N 33°42' W 118°13'0 0.0
2017-Sep-13 15:29N 33°42' W 118°13'0 0.1
2017-Sep-13 14:41N 33°42' W 118°13'0 0.0
2017-Sep-13 14:29N 33°42' W 118°13'0 0.0
2017-Sep-13 13:59N 33°42' W 118°13'0 0.0
2017-Sep-13 13:14N 33°42' W 118°13'0 0.2
2017-Sep-13 12:56N 33°42' W 118°13'0 0.0
2017-Sep-13 12:29N 33°42' W 118°13'0 0.0
2017-Sep-13 11:59N 33°42' W 118°13'0 0.0
2017-Sep-13 11:23N 33°42' W 118°13'0 0.0
2017-Sep-13 10:59N 33°42' W 118°13'0 0.0
2017-Sep-13 10:17N 33°42' W 118°13'0 0.0
2017-Sep-13 09:59N 33°42' W 118°13'0 0.0
2017-Sep-13 09:29N 33°42' W 118°13'0 0.0
2017-Sep-13 08:59N 33°42' W 118°13'0 0.0
2017-Sep-13 07:59N 33°42' W 118°13'0 0.0
2017-Sep-13 07:29N 33°42' W 118°13'0 0.1
2017-Sep-13 06:59N 33°42' W 118°13'0 0.1
2017-Sep-13 06:29N 33°42' W 118°13'0 0.0
2017-Sep-13 05:59N 33°42' W 118°13'0 0.0
2017-Sep-13 05:26N 33°42' W 118°13'0 0.0
2017-Sep-13 04:59N 33°42' W 118°13'0 0.0
2017-Sep-13 04:29N 33°42' W 118°13'0 0.0
2017-Sep-13 03:59N 33°42' W 118°13'0 0.0
2017-Sep-13 03:26N 33°42' W 118°13'0 0.0
2017-Sep-13 02:53N 33°42' W 118°13'0 0.0
2017-Sep-13 02:29N 33°42' W 118°13'0 0.0
2017-Sep-13 01:56N 33°42' W 118°13'0 0.0
2017-Sep-13 01:29N 33°42' W 118°13'0 0.0
2017-Sep-13 00:59N 33°42' W 118°13'0 0.0
2017-Sep-13 00:29N 33°42' W 118°13'0 0.0
2017-Sep-12 23:59N 33°42' W 118°13'0 0.0
2017-Sep-12 23:29N 33°42' W 118°13'0 0.0
2017-Sep-12 22:59N 33°42' W 118°13'0 0.0
2017-Sep-12 22:29N 33°42' W 118°13'0 0.0
2017-Sep-12 21:59N 33°42' W 118°13'0 0.0
2017-Sep-12 21:29N 33°42' W 118°13'0 0.0
2017-Sep-12 20:59N 33°42' W 118°13'0 0.0
2017-Sep-12 20:29N 33°42' W 118°13'0 0.0
2017-Sep-12 19:56N 33°42' W 118°13'0 0.0
2017-Sep-12 19:29N 33°42' W 118°13'0 0.0
2017-Sep-12 18:59N 33°42' W 118°13'0 0.0
2017-Sep-12 18:29N 33°42' W 118°13'0 0.0
2017-Sep-12 17:59N 33°42' W 118°13'0 0.0
2017-Sep-12 16:59N 33°42' W 118°13'0 0.1
2017-Sep-12 16:26N 33°42' W 118°13'0 0.1
2017-Sep-12 15:56N 33°42' W 118°13'0 0.0
2017-Sep-12 15:29N 33°42' W 118°13'0 0.1
2017-Sep-12 14:59N 33°42' W 118°13'0 0.0
2017-Sep-12 14:11N 33°42' W 118°13'0 0.0
2017-Sep-12 13:59N 33°42' W 118°13'0 0.0
2017-Sep-12 13:29N 33°42' W 118°13'0 0.0
2017-Sep-12 12:59N 33°42' W 118°13'0 0.0
2017-Sep-12 12:26N 33°42' W 118°13'0 0.0
2017-Sep-12 11:59N 33°42' W 118°13'0 0.0
2017-Sep-12 11:29N 33°42' W 118°13'0 0.0
2017-Sep-12 10:59N 33°42' W 118°13'0 0.0
2017-Sep-12 10:29N 33°42' W 118°13'0 0.0
2017-Sep-12 09:59N 33°42' W 118°13'0 0.0
2017-Sep-12 09:29N 33°42' W 118°13'0 0.0
2017-Sep-12 08:59N 33°42' W 118°13'0 0.0
2017-Sep-12 08:29N 33°42' W 118°13'0 0.0
2017-Sep-12 07:59N 33°42' W 118°13'0 0.0
2017-Sep-12 07:29N 33°42' W 118°13'0 0.0
2017-Sep-12 06:59N 33°42' W 118°13'0 0.0
2017-Sep-12 06:29N 33°42' W 118°13'0 0.0
2017-Sep-12 05:59N 33°42' W 118°13'0 0.0
2017-Sep-12 05:29N 33°42' W 118°13'0 0.0
2017-Sep-12 04:59N 33°42' W 118°13'0 0.0
2017-Sep-12 04:29N 33°42' W 118°13'0 0.0
2017-Sep-12 03:59N 33°42' W 118°13'0 0.1
2017-Sep-12 03:29N 33°42' W 118°13'0 0.0
2017-Sep-12 02:59N 33°42' W 118°13'0 0.0
2017-Sep-12 02:29N 33°42' W 118°13'0 0.0
2017-Sep-12 01:59N 33°42' W 118°13'0 0.0
2017-Sep-12 01:26N 33°42' W 118°13'0 0.0
2017-Sep-12 00:59N 33°42' W 118°13'0 0.0
2017-Sep-12 00:29N 33°42' W 118°13'0 0.1
2017-Sep-11 23:59N 33°42' W 118°13'0 0.0
2017-Sep-11 23:29N 33°42' W 118°13'0 0.0
2017-Sep-11 22:59N 33°42' W 118°13'0 0.0
2017-Sep-11 22:29N 33°42' W 118°13'0 0.0
2017-Sep-11 21:59N 33°42' W 118°13'0 0.0
2017-Sep-11 21:29N 33°42' W 118°13'0 0.0
2017-Sep-11 20:59N 33°42' W 118°13'0 0.0
2017-Sep-11 20:29N 33°42' W 118°13'  
Track history (hours):
 
Tides and Currents Weather Stations Pressure Air Temp Water Temp Dewpoint Dewpoint Depression Visibility Wind Speed Wind Dir Waves Ship Positions

Lumen N

Last reported at 2017-Sep-21 20:11 UTC. Time now 2017-Sep-25 11:37 UTC.
Position N 33°46' W 118°16'.

Length 228 m; draft 8.2 m.

Type: Tanker. MMSI: 355364000.

Date/timePositionNaut miles runAvg speedWind from/ knotsBaromVisibWave heightAir tempDewpointWater temp
2017-Sep-21 20:11N 33°46' W 118°16'0 0.0
2017-Sep-21 19:41N 33°46' W 118°16'0 0.0
2017-Sep-21 18:11N 33°46' W 118°16'0 0.0
2017-Sep-21 17:41N 33°46' W 118°16'0 0.0
2017-Sep-21 17:17N 33°46' W 118°16'0 0.4
2017-Sep-21 17:00N 33°46' W 118°16'0 0.8
2017-Sep-21 16:30N 33°45' W 118°16'2 4.2
2017-Sep-21 15:55N 33°43' W 118°16'3 0.8
2017-Sep-21 12:40N 33°44' W 118°13'0 0.1
2017-Sep-21 12:10N 33°44' W 118°13'0 0.0
2017-Sep-21 11:58N 33°44' W 118°13'1 0.5
2017-Sep-21 10:05N 33°45' W 118°13'1 4.0
2017-Sep-21 09:51N 33°46' W 118°13'1 2.2
2017-Sep-21 09:27N 33°46' W 118°13'0 0.0
2017-Sep-21 03:09N 33°46' W 118°13'0 0.0
2017-Sep-21 02:45N 33°46' W 118°13'0 0.0
2017-Sep-21 02:15N 33°46' W 118°13'0 0.0
2017-Sep-20 23:15N 33°46' W 118°13'0 0.0
2017-Sep-20 22:57N 33°46' W 118°13'0 0.0
2017-Sep-20 21:15N 33°46' W 118°13'0 0.0
2017-Sep-20 20:51N 33°46' W 118°13'0 0.0
2017-Sep-20 19:03N 33°46' W 118°13'0 0.0
2017-Sep-20 18:57N 33°46' W 118°13'0 0.0
2017-Sep-20 18:27N 33°46' W 118°13'0 0.0
2017-Sep-20 17:57N 33°46' W 118°13'0 0.0
2017-Sep-20 17:27N 33°46' W 118°13'0 0.0
2017-Sep-20 16:45N 33°46' W 118°13'0 0.0
2017-Sep-20 08:36N 33°46' W 118°13'0 0.7
2017-Sep-20 08:31N 33°46' W 118°13'1 1.8
2017-Sep-20 07:57N 33°45' W 118°13'2 5.0
2017-Sep-20 07:30N 33°44' W 118°11'2 4.1
2017-Sep-20 07:00N 33°42' W 118°13'0 0.1
2017-Sep-20 05:13N 33°42' W 118°13'0 0.1
2017-Sep-20 04:43N 33°42' W 118°13'0 0.1
2017-Sep-20 03:43N 33°42' W 118°13'0 0.0
2017-Sep-20 03:13N 33°42' W 118°13'0 0.2
2017-Sep-20 02:58N 33°42' W 118°13'0 0.2
2017-Sep-20 02:25N 33°42' W 118°13'0 0.1
2017-Sep-20 01:49N 33°42' W 118°13'0 0.0
2017-Sep-19 20:58N 33°42' W 118°13'0 0.1
2017-Sep-19 20:19N 33°42' W 118°13'0 0.0
2017-Sep-19 19:58N 33°42' W 118°13'0 0.1
2017-Sep-19 19:19N 33°42' W 118°13'0 0.0
2017-Sep-19 18:49N 33°42' W 118°13'0 0.0
2017-Sep-19 18:25N 33°42' W 118°13'0 0.1
2017-Sep-19 17:43N 33°42' W 118°13'0 0.0
2017-Sep-19 17:30N 33°42' W 118°13'0 0.0
2017-Sep-19 16:54N 33°42' W 118°13'0 0.0
2017-Sep-19 11:24N 33°42' W 118°13'0 0.0
2017-Sep-19 10:54N 33°42' W 118°13'0 0.0
2017-Sep-19 04:05N 33°42' W 118°13'0 0.1
2017-Sep-19 03:53N 33°42' W 118°13'0 0.1
2017-Sep-19 03:30N 33°42' W 118°13'0 0.0
2017-Sep-19 03:00N 33°42' W 118°13'0 0.0
2017-Sep-19 00:12N 33°42' W 118°13'0 0.0
2017-Sep-19 00:00N 33°42' W 118°13'0 0.0
2017-Sep-18 23:30N 33°42' W 118°13'0 0.1
2017-Sep-18 22:41N 33°42' W 118°13'0 0.3
2017-Sep-18 22:30N 33°42' W 118°13'0 0.0
2017-Sep-18 21:48N 33°42' W 118°13'0 0.0
2017-Sep-18 21:23N 33°42' W 118°13'0 0.1
2017-Sep-18 20:42N 33°42' W 118°13'0 0.2
2017-Sep-18 20:08N 33°42' W 118°13'0 0.0
2017-Sep-18 19:59N 33°42' W 118°13'0 0.0
2017-Sep-18 19:29N 33°42' W 118°13'0 0.1
2017-Sep-18 19:00N 33°42' W 118°13'0 0.0
2017-Sep-18 18:29N 33°42' W 118°13'0 0.0
2017-Sep-18 17:56N 33°42' W 118°13'0 0.0
2017-Sep-18 17:24N 33°42' W 118°13'0 0.1
2017-Sep-18 16:56N 33°42' W 118°13'0 0.0
2017-Sep-18 16:30N 33°42' W 118°13'0 0.0
2017-Sep-18 15:56N 33°42' W 118°13'0 0.1
2017-Sep-18 15:29N 33°42' W 118°13'0 0.0
2017-Sep-18 15:00N 33°42' W 118°13'0 0.0
2017-Sep-18 14:29N 33°42' W 118°13'0 0.0
2017-Sep-18 13:30N 33°42' W 118°13'0 0.0
2017-Sep-18 12:59N 33°42' W 118°13'0 0.0
2017-Sep-18 11:41N 33°42' W 118°13'0 0.0
2017-Sep-18 11:29N 33°42' W 118°13'0 0.1
2017-Sep-18 10:59N 33°42' W 118°13'0 0.0
2017-Sep-18 10:29N 33°42' W 118°13'0 0.1
2017-Sep-18 09:50N 33°42' W 118°13'0 0.1
2017-Sep-18 09:30N 33°42' W 118°13'0 0.1
2017-Sep-18 08:59N 33°42' W 118°13'0 0.0
2017-Sep-18 08:30N 33°42' W 118°13'0 0.1
2017-Sep-18 07:47N 33°42' W 118°13'0 0.0
2017-Sep-18 07:29N 33°42' W 118°13'0 0.1
2017-Sep-18 07:00N 33°42' W 118°13'0 0.0
2017-Sep-18 06:23N 33°42' W 118°13'0 0.1
2017-Sep-18 05:59N 33°42' W 118°13'0 0.0
2017-Sep-18 05:29N 33°42' W 118°13'0 0.1
2017-Sep-18 03:33N 33°42' W 118°13'0 0.1
2017-Sep-18 03:26N 33°42' W 118°13'0 0.1
2017-Sep-18 02:41N 33°42' W 118°13'0 0.1
2017-Sep-18 02:29N 33°42' W 118°13'0 0.0
2017-Sep-18 01:56N 33°42' W 118°13'0 0.0
2017-Sep-18 01:26N 33°42' W 118°13'0 0.0
2017-Sep-18 00:38N 33°42' W 118°13'0 0.0
2017-Sep-18 00:26N 33°42' W 118°13'0 0.0
2017-Sep-17 23:59N 33°42' W 118°13'0 0.0
2017-Sep-17 22:59N 33°42' W 118°13'0 0.0
2017-Sep-17 21:18N 33°42' W 118°13'0 0.0
2017-Sep-17 20:54N 33°42' W 118°13'0 0.0
2017-Sep-17 15:11N 33°42' W 118°13'0 0.1
2017-Sep-17 14:47N 33°42' W 118°13'0 0.0
2017-Sep-17 14:05N 33°42' W 118°13'0 0.0
2017-Sep-17 13:41N 33°42' W 118°13'0 0.0
2017-Sep-17 12:35N 33°42' W 118°13'0 0.0
2017-Sep-17 12:29N 33°42' W 118°13'0 0.0
2017-Sep-17 09:05N 33°42' W 118°13'0 0.1
2017-Sep-17 08:59N 33°42' W 118°13'0 0.1
2017-Sep-17 08:29N 33°42' W 118°13'0 0.0
2017-Sep-17 07:35N 33°42' W 118°13'0 0.1
2017-Sep-17 07:29N 33°42' W 118°13'0 0.0
2017-Sep-17 04:11N 33°42' W 118°13'0 0.0
2017-Sep-17 03:50N 33°42' W 118°13'0 0.0
2017-Sep-16 22:11N 33°42' W 118°13'0 0.0
2017-Sep-16 21:47N 33°42' W 118°13'0 0.0
2017-Sep-16 18:44N 33°42' W 118°13'0 0.1
2017-Sep-16 17:59N 33°42' W 118°13'0 0.0
2017-Sep-16 17:23N 33°42' W 118°13'0 0.0
2017-Sep-16 13:53N 33°42' W 118°13'0 0.0
2017-Sep-16 13:29N 33°42' W 118°13'0 0.0
2017-Sep-16 12:59N 33°42' W 118°13'0 0.1
2017-Sep-16 12:23N 33°42' W 118°13'0 0.0
2017-Sep-16 11:53N 33°42' W 118°13'0 0.0
2017-Sep-16 11:29N 33°42' W 118°13'0 0.0
2017-Sep-16 10:59N 33°42' W 118°13'0 0.0
2017-Sep-16 10:23N 33°42' W 118°13'0 0.1
2017-Sep-16 09:26N 33°42' W 118°13'0 0.1
2017-Sep-16 08:44N 33°42' W 118°13'0 0.0
2017-Sep-16 08:29N 33°42' W 118°13'0 0.0
2017-Sep-16 07:59N 33°42' W 118°13'0 0.0
2017-Sep-16 07:29N 33°42' W 118°13'0 0.0
2017-Sep-16 06:23N 33°42' W 118°13'0 0.0
2017-Sep-16 05:17N 33°42' W 118°13'0 0.2
2017-Sep-16 04:59N 33°42' W 118°13'0 0.0
2017-Sep-16 03:17N 33°42' W 118°13'0 0.0
2017-Sep-16 01:11N 33°42' W 118°13'0 0.0
2017-Sep-16 00:59N 33°42' W 118°13'0 0.0
2017-Sep-16 00:29N 33°42' W 118°13'0 0.0
2017-Sep-15 23:59N 33°42' W 118°13'0 0.0
2017-Sep-15 22:29N 33°42' W 118°13'0 0.0
2017-Sep-15 21:47N 33°42' W 118°13'0 0.0
2017-Sep-15 21:14N 33°42' W 118°13'0 0.0
2017-Sep-15 20:38N 33°42' W 118°13'0 0.0
2017-Sep-15 20:29N 33°42' W 118°13'0 0.0
2017-Sep-15 19:17N 33°42' W 118°13'0 0.1
2017-Sep-15 18:47N 33°42' W 118°13'0 0.2
2017-Sep-15 18:29N 33°42' W 118°13'0 0.0
2017-Sep-15 17:56N 33°42' W 118°13'0 0.0
2017-Sep-15 13:08N 33°42' W 118°13'0 0.0
2017-Sep-15 12:41N 33°42' W 118°13'0 0.0
2017-Sep-15 12:23N 33°42' W 118°13'0 0.1
2017-Sep-15 11:41N 33°42' W 118°13'0 0.2
2017-Sep-15 11:29N 33°42' W 118°13'0 0.0
2017-Sep-15 10:59N 33°42' W 118°13'0 0.0
2017-Sep-15 10:26N 33°42' W 118°13'0 0.0
2017-Sep-15 09:59N 33°42' W 118°13'0 0.1
2017-Sep-15 09:29N 33°42' W 118°13'0 0.1
2017-Sep-15 08:59N 33°42' W 118°13'0 0.0
2017-Sep-15 08:29N 33°42' W 118°13'0 0.0
2017-Sep-15 07:59N 33°42' W 118°13'0 0.0
2017-Sep-15 07:29N 33°42' W 118°13'0 0.0
2017-Sep-15 06:59N 33°42' W 118°13'0 0.0
2017-Sep-15 05:26N 33°42' W 118°13'0 0.0
2017-Sep-15 04:53N 33°42' W 118°13'0 0.0
2017-Sep-15 04:29N 33°42' W 118°13'0 0.0
2017-Sep-15 03:56N 33°42' W 118°13'0 0.0
2017-Sep-15 03:11N 33°42' W 118°13'0 0.0
2017-Sep-15 01:17N 33°42' W 118°13'0 0.0
2017-Sep-15 00:50N 33°42' W 118°13'0 0.0
2017-Sep-15 00:20N 33°42' W 118°13'0 0.0
2017-Sep-14 23:59N 33°42' W 118°13'0 0.0
2017-Sep-14 23:29N 33°42' W 118°13'0 0.0
2017-Sep-14 22:59N 33°42' W 118°13'0 0.0
2017-Sep-14 21:47N 33°42' W 118°13'0 0.0
2017-Sep-14 21:20N 33°42' W 118°13'0 0.0
2017-Sep-14 20:59N 33°42' W 118°13'0 0.0
2017-Sep-14 20:23N 33°42' W 118°13'0 0.0
2017-Sep-14 19:53N 33°42' W 118°13'0 0.0
2017-Sep-14 19:29N 33°42' W 118°13'0 0.0
2017-Sep-14 18:59N 33°42' W 118°13'0 0.1
2017-Sep-14 18:29N 33°42' W 118°13'0 0.0
2017-Sep-14 17:59N 33°42' W 118°13'0 0.1
2017-Sep-14 17:02N 33°42' W 118°13'0 0.2
2017-Sep-14 16:47N 33°42' W 118°13'0 0.0
2017-Sep-14 15:17N 33°42' W 118°13'0 0.0
2017-Sep-14 14:05N 33°42' W 118°13'0 0.0
2017-Sep-14 13:53N 33°42' W 118°13'0 0.1
2017-Sep-14 13:29N 33°42' W 118°13'0 0.1
2017-Sep-14 12:53N 33°42' W 118°13'0 0.0
2017-Sep-14 12:29N 33°42' W 118°13'0 0.1
2017-Sep-14 11:59N 33°42' W 118°13'0 0.0
2017-Sep-14 11:29N 33°42' W 118°13'0 0.0
2017-Sep-14 09:26N 33°42' W 118°13'0 0.0
2017-Sep-14 08:59N 33°42' W 118°13'0 0.0
2017-Sep-14 05:41N 33°42' W 118°13'0 0.2
2017-Sep-14 05:29N 33°42' W 118°13'0 0.1
2017-Sep-14 04:53N 33°42' W 118°13'0 0.1
2017-Sep-14 04:29N 33°42' W 118°13'0 0.0
2017-Sep-14 03:59N 33°42' W 118°13'0 0.0
2017-Sep-14 03:08N 33°42' W 118°13'0 0.3
2017-Sep-14 02:56N 33°42' W 118°13'0 0.1
2017-Sep-14 02:26N 33°42' W 118°13'0 0.1
2017-Sep-14 01:59N 33°42' W 118°13'0 0.0
2017-Sep-14 01:29N 33°42' W 118°13'0 0.0
2017-Sep-14 00:59N 33°42' W 118°13'0 0.0
2017-Sep-14 00:17N 33°42' W 118°13'0 0.0
2017-Sep-13 23:59N 33°42' W 118°13'0 0.0
2017-Sep-13 23:26N 33°42' W 118°13'0 0.0
2017-Sep-13 22:56N 33°42' W 118°13'0 0.0
2017-Sep-13 22:17N 33°42' W 118°13'0 0.0
2017-Sep-13 21:47N 33°42' W 118°13'0 0.0
2017-Sep-13 21:29N 33°42' W 118°13'0 0.0
2017-Sep-13 20:59N 33°42' W 118°13'0 0.0
2017-Sep-13 20:08N 33°42' W 118°13'0 0.0
2017-Sep-13 19:44N 33°42' W 118°13'0 0.0
2017-Sep-13 19:29N 33°42' W 118°13'0 0.0
2017-Sep-13 18:59N 33°42' W 118°13'0 0.0
2017-Sep-13 18:29N 33°42' W 118°13'0 0.0
2017-Sep-13 17:56N 33°42' W 118°13'0 0.0
2017-Sep-13 17:29N 33°42' W 118°13'0 0.0
2017-Sep-13 16:53N 33°42' W 118°13'0 0.0
2017-Sep-13 15:59N 33°42' W 118°13'0 0.0
2017-Sep-13 15:29N 33°42' W 118°13'0 0.1
2017-Sep-13 14:41N 33°42' W 118°13'0 0.0
2017-Sep-13 14:29N 33°42' W 118°13'0 0.0
2017-Sep-13 13:59N 33°42' W 118°13'0 0.0
2017-Sep-13 13:14N 33°42' W 118°13'0 0.2
2017-Sep-13 12:56N 33°42' W 118°13'0 0.0
2017-Sep-13 12:29N 33°42' W 118°13'0 0.0
2017-Sep-13 11:59N 33°42' W 118°13'0 0.0
2017-Sep-13 11:23N 33°42' W 118°13'0 0.0
2017-Sep-13 10:59N 33°42' W 118°13'0 0.0
2017-Sep-13 10:17N 33°42' W 118°13'0 0.0
2017-Sep-13 09:59N 33°42' W 118°13'0 0.0
2017-Sep-13 09:29N 33°42' W 118°13'0 0.0
2017-Sep-13 08:59N 33°42' W 118°13'0 0.0
2017-Sep-13 07:59N 33°42' W 118°13'0 0.0
2017-Sep-13 07:29N 33°42' W 118°13'0 0.1
2017-Sep-13 06:59N 33°42' W 118°13'0 0.1
2017-Sep-13 06:29N 33°42' W 118°13'0 0.0
2017-Sep-13 05:59N 33°42' W 118°13'0 0.0
2017-Sep-13 05:26N 33°42' W 118°13'0 0.0
2017-Sep-13 04:59N 33°42' W 118°13'0 0.0
2017-Sep-13 04:29N 33°42' W 118°13'0 0.0
2017-Sep-13 03:59N 33°42' W 118°13'0 0.0
2017-Sep-13 03:26N 33°42' W 118°13'0 0.0
2017-Sep-13 02:53N 33°42' W 118°13'0 0.0
2017-Sep-13 02:29N 33°42' W 118°13'0 0.0
2017-Sep-13 01:56N 33°42' W 118°13'0 0.0
2017-Sep-13 01:29N 33°42' W 118°13'0 0.0
2017-Sep-13 00:59N 33°42' W 118°13'0 0.0
2017-Sep-13 00:29N 33°42' W 118°13'0 0.0
2017-Sep-12 23:59N 33°42' W 118°13'0 0.0
2017-Sep-12 23:29N 33°42' W 118°13'0 0.0
2017-Sep-12 22:59N 33°42' W 118°13'0 0.0
2017-Sep-12 22:29N 33°42' W 118°13'0 0.0
2017-Sep-12 21:59N 33°42' W 118°13'0 0.0
2017-Sep-12 21:29N 33°42' W 118°13'0 0.0
2017-Sep-12 20:59N 33°42' W 118°13'0 0.0
2017-Sep-12 20:29N 33°42' W 118°13'0 0.0
2017-Sep-12 19:56N 33°42' W 118°13'0 0.0
2017-Sep-12 19:29N 33°42' W 118°13'0 0.0
2017-Sep-12 18:59N 33°42' W 118°13'0 0.0
2017-Sep-12 18:29N 33°42' W 118°13'0 0.0
2017-Sep-12 17:59N 33°42' W 118°13'0 0.0
2017-Sep-12 16:59N 33°42' W 118°13'0 0.1
2017-Sep-12 16:26N 33°42' W 118°13'0 0.1
2017-Sep-12 15:56N 33°42' W 118°13'0 0.0
2017-Sep-12 15:29N 33°42' W 118°13'0 0.1
2017-Sep-12 14:59N 33°42' W 118°13'0 0.0
2017-Sep-12 14:11N 33°42' W 118°13'0 0.0
2017-Sep-12 13:59N 33°42' W 118°13'0 0.0
2017-Sep-12 13:29N 33°42' W 118°13'0 0.0
2017-Sep-12 12:59N 33°42' W 118°13'0 0.0
2017-Sep-12 12:26N 33°42' W 118°13'0 0.0
2017-Sep-12 11:59N 33°42' W 118°13'0 0.0
2017-Sep-12 11:29N 33°42' W 118°13'0 0.0
2017-Sep-12 10:59N 33°42' W 118°13'0 0.0
2017-Sep-12 10:29N 33°42' W 118°13'0 0.0
2017-Sep-12 09:59N 33°42' W 118°13'0 0.0
2017-Sep-12 09:29N 33°42' W 118°13'0 0.0
2017-Sep-12 08:59N 33°42' W 118°13'0 0.0
2017-Sep-12 08:29N 33°42' W 118°13'0 0.0
2017-Sep-12 07:59N 33°42' W 118°13'0 0.0
2017-Sep-12 07:29N 33°42' W 118°13'0 0.0
2017-Sep-12 06:59N 33°42' W 118°13'0 0.0
2017-Sep-12 06:29N 33°42' W 118°13'0 0.0
2017-Sep-12 05:59N 33°42' W 118°13'0 0.0
2017-Sep-12 05:29N 33°42' W 118°13'0 0.0
2017-Sep-12 04:59N 33°42' W 118°13'0 0.0
2017-Sep-12 04:29N 33°42' W 118°13'0 0.0
2017-Sep-12 03:59N 33°42' W 118°13'0 0.1
2017-Sep-12 03:29N 33°42' W 118°13'0 0.0
2017-Sep-12 02:59N 33°42' W 118°13'0 0.0
2017-Sep-12 02:29N 33°42' W 118°13'0 0.0
2017-Sep-12 01:59N 33°42' W 118°13'0 0.0
2017-Sep-12 01:26N 33°42' W 118°13'0 0.0
2017-Sep-12 00:59N 33°42' W 118°13'0 0.0
2017-Sep-12 00:29N 33°42' W 118°13'0 0.1
2017-Sep-11 23:59N 33°42' W 118°13'0 0.0
2017-Sep-11 23:29N 33°42' W 118°13'0 0.0
2017-Sep-11 22:59N 33°42' W 118°13'0 0.0
2017-Sep-11 22:29N 33°42' W 118°13'0 0.0
2017-Sep-11 21:59N 33°42' W 118°13'0 0.0
2017-Sep-11 21:29N 33°42' W 118°13'0 0.0
2017-Sep-11 20:59N 33°42' W 118°13'0 0.0
2017-Sep-11 20:29N 33°42' W 118°13'  

Dump ship's entire track history